SBPK/PET METAR and TAF weather

Enter ICAO airport designator
Station Type Date Time Source
SBPK METAR 2021/04/12 20:00 UTC NOAA

SBPK 122000Z 19008KT 9999 BKN040 25/16 Q1019


Station Type Date Time Source
SBPK Decoded METAR 2021/04/12 20:00 UTC NOAA

Pelotas, Brazil (SBPK) 31-52S 052-21W 13M
Apr 12, 2021 - 04:00 PM EDT / 2021.04.12 2000 UTC
Wind: from the S (190 degrees) at 9 MPH (8 KT):0
Visibility: greater than 7 mile(s):0
Sky conditions: mostly cloudy
Temperature: 77 F (25 C)
Dew Point: 60 F (16 C)
Relative Humidity: 57%
Pressure (altimeter): 30.09 in. Hg (1019 hPa)
ob: SBPK 122000Z 19008KT 9999 BKN040 25/16 Q1019
cycle: 20

Station Type Date Time Source
SBPK TAF 2021/04/13 06:06 UTC NOAA

TAF SBPK 130300Z 1306/1406 25005KT CAVOK TN22/1306Z TX25/1317Z
RMK PED

Example: see airport list